McCook Lake, South Dakota
Current Conditions -  °F | °C
As of 4:52 AM on Thursday 23 Oct 2014 (Local Time) from KSUX Reporting Station
Haze Haze  
Wind Chill: 54°   Ceiling: 200
Heat Index: 54°   Visibility: 0.75mi
Dew Point: 54°   Wind: 7mph
Humidity: 100%   Direction: 330°NNW
Pressure: 30.02"   Gusts: NA
Location:  42.532°N, 96.5446°W
Report Text: KSUX 230952Z AUTO 33006KT 3/4SM R31/2400V6000FT BR VV002 12/12 A3002 RMK AO2 SLP164 T01220122
Loading
Personal Weather Stations






























Interactive Weather Map
Tropical Storm Tracking
New forecast layout! Learn more

10-Day Weather Forecast

Advertisements
Track Severe Weather on mobile